地図

経路データ

SID SEASON NUMBER BASIN SUBBASIN NAME ISO_TIME NATURE LAT LON WMO_WIND WMO_PRES WMO_AGENCY TRACK_TYPE DIST2LAND LANDFALL IFLAG USA_AGENCY USA_ATCF_ID USA_LAT USA_LON USA_RECORD USA_STATUS USA_WIND USA_PRES USA_SSHS USA_R34_NE USA_R34_SE USA_R34_SW USA_R34_NW USA_R50_NE USA_R50_SE USA_R50_SW USA_R50_NW USA_R64_NE USA_R64_SE USA_R64_SW USA_R64_NW USA_POCI USA_ROCI USA_RMW USA_EYE TOKYO_LAT TOKYO_LON TOKYO_GRADE TOKYO_WIND TOKYO_PRES TOKYO_R50_DIR TOKYO_R50_LONG TOKYO_R50_SHORT TOKYO_R30_DIR TOKYO_R30_LONG TOKYO_R30_SHORT TOKYO_LAND CMA_LAT CMA_LON CMA_CAT CMA_WIND CMA_PRES HKO_LAT HKO_LON HKO_CAT HKO_WIND HKO_PRES NEWDELHI_LAT NEWDELHI_LON NEWDELHI_GRADE NEWDELHI_WIND NEWDELHI_PRES NEWDELHI_CI NEWDELHI_DP NEWDELHI_POCI REUNION_LAT REUNION_LON REUNION_TYPE REUNION_WIND REUNION_PRES REUNION_TNUM REUNION_CI REUNION_RMW REUNION_R34_NE REUNION_R34_SE REUNION_R34_SW REUNION_R34_NW REUNION_R50_NE REUNION_R50_SE REUNION_R50_SW REUNION_R50_NW REUNION_R64_NE REUNION_R64_SE REUNION_R64_SW REUNION_R64_NW BOM_LAT BOM_LON BOM_TYPE BOM_WIND BOM_PRES BOM_TNUM BOM_CI BOM_RMW BOM_R34_NE BOM_R34_SE BOM_R34_SW BOM_R34_NW BOM_R50_NE BOM_R50_SE BOM_R50_SW BOM_R50_NW BOM_R64_NE BOM_R64_SE BOM_R64_SW BOM_R64_NW BOM_ROCI BOM_POCI BOM_EYE BOM_POS_METHOD BOM_PRES_METHOD NADI_LAT NADI_LON NADI_CAT NADI_WIND NADI_PRES WELLINGTON_LAT WELLINGTON_LON WELLINGTON_WIND WELLINGTON_PRES DS824_LAT DS824_LON DS824_STAGE DS824_WIND DS824_PRES TD9636_LAT TD9636_LON TD9636_STAGE TD9636_WIND TD9636_PRES TD9635_LAT TD9635_LON TD9635_WIND TD9635_PRES TD9635_ROCI NEUMANN_LAT NEUMANN_LON NEUMANN_CLASS NEUMANN_WIND NEUMANN_PRES MLC_LAT MLC_LON MLC_CLASS MLC_WIND MLC_PRES USA_GUST BOM_GUST BOM_GUST_PER REUNION_GUST REUNION_GUST_PER USA_SEAHGT USA_SEARAD_NE USA_SEARAD_SE USA_SEARAD_SW USA_SEARAD_NW STORM_SPEED STORM_DIR
1927266N21134 1927 52 WP MM NOT_NAMED 1927-09-23 09:00:00 NR 21.1000 133.700 main 1145 1033 __________O___ -1 21.1000 133.700 4 28 306
1927266N21134 1927 52 WP MM NOT_NAMED 1927-09-23 12:00:00 NR 21.9160 132.501 main 1031 929 __________P___ -1 21.9160 132.501 4 27 306
1927266N21134 1927 52 WP MM NOT_NAMED 1927-09-23 15:00:00 NR 22.6916 131.375 main 929 848 __________P___ -1 22.6916 131.375 4 24 307
1927266N21134 1927 52 WP MM NOT_NAMED 1927-09-23 18:00:00 NR 23.3958 130.410 main 849 786 __________P___ -1 23.3958 130.410 4 20 310
1927266N21134 1927 52 WP MM NOT_NAMED 1927-09-23 21:00:00 NR 24.0000 129.700 main 786 738 __________O___ -1 24.0000 129.700 4 15 317
1927266N21134 1927 52 WP MM NOT_NAMED 1927-09-24 00:00:00 NR 24.4810 129.309 main 738 707 __________P___ -1 24.4810 129.309 4 10 331
1927266N21134 1927 52 WP MM NOT_NAMED 1927-09-24 03:00:00 NR 24.8296 129.194 main 707 683 __________P___ -1 24.8296 129.194 4 6 358
1927266N21134 1927 52 WP MM NOT_NAMED 1927-09-24 06:00:00 NR 25.0387 129.283 main 683 669 __________P___ -1 25.0387 129.283 4 4 46
1927266N21134 1927 52 WP MM NOT_NAMED 1927-09-24 09:00:00 NR 25.1000 129.500 main 669 667 __________O___ -1 25.1000 129.500 4 5 103
1927266N21134 1927 52 WP MM NOT_NAMED 1927-09-24 12:00:00 NR 24.9181 129.857 main 685 684 __________P___ -1 24.9181 129.857 4 9 124
1927266N21134 1927 52 WP MM NOT_NAMED 1927-09-24 15:00:00 NR 24.6135 130.294 main 715 715 __________P___ -1 24.6135 130.294 4 9 129
1927266N21134 1927 52 WP MM NOT_NAMED 1927-09-24 18:00:00 NR 24.3267 130.659 main 748 748 __________P___ -1 24.3267 130.659 4 6 132
1927266N21134 1927 52 WP MM NOT_NAMED 1927-09-24 21:00:00 NR 24.2000 130.800 main 759 737 __________O___ -1 24.2000 130.800 4 3 290
1927266N21134 1927 52 WP MM NOT_NAMED 1927-09-25 00:00:00 NR 24.4190 130.382 main 737 697 __________P___ -1 24.4190 130.382 4 11 303
1927266N21134 1927 52 WP MM NOT_NAMED 1927-09-25 03:00:00 NR 24.8092 129.751 main 697 655 __________P___ -1 24.8092 129.751 4 14 307
1927266N21134 1927 52 WP MM NOT_NAMED 1927-09-25 06:00:00 NR 25.2941 129.118 main 655 612 __________P___ -1 25.2941 129.118 4 14 316
1927266N21134 1927 52 WP MM NOT_NAMED 1927-09-25 09:00:00 NR 25.8000 128.700 main 612 566 __________O___ -1 25.8000 128.700 4 10 342
1927266N21134 1927 52 WP MM NOT_NAMED 1927-09-25 12:00:00 NR 26.2574 128.770 main 556 504 __________P___ -1 26.2574 128.770 4 10 21
1927266N21134 1927 52 WP MM NOT_NAMED 1927-09-25 15:00:00 NR 26.7167 129.087 main 504 450 __________P___ -1 26.7167 129.087 4 11 39
1927266N21134 1927 52 WP MM NOT_NAMED 1927-09-25 18:00:00 NR 27.1425 129.561 main 448 394 __________P___ -1 27.1425 129.561 4 12 49
1927266N21134 1927 52 WP MM NOT_NAMED 1927-09-25 21:00:00 NR 27.5000 130.100 main 394 368 __________O___ -1 27.5000 130.100 4 10 53
1927266N21134 1927 52 WP MM NOT_NAMED 1927-09-26 00:00:00 NR 27.7485 130.482 main 368 346 __________P___ -1 27.7485 130.482 4 8 59
1927266N21134 1927 52 WP MM NOT_NAMED 1927-09-26 03:00:00 NR 27.9285 130.916 main 346 330 __________P___ -1 27.9285 130.916 4 9 69
1927266N21134 1927 52 WP MM NOT_NAMED 1927-09-26 06:00:00 NR 28.0693 131.441 main 330 330 __________P___ -1 28.0693 131.441 4 11 75
1927266N21134 1927 52 WP MM NOT_NAMED 1927-09-26 09:00:00 NR 28.2000 132.100 main 340 340 __________O___ -1 28.2000 132.100 4 14 78
1927266N21134 1927 52 WP MM NOT_NAMED 1927-09-26 12:00:00 NR 28.3489 132.983 main 374 365 __________P___ -1 28.3489 132.983 4 17 80
1927266N21134 1927 52 WP MM NOT_NAMED 1927-09-26 15:00:00 NR 28.4905 133.991 main 409 409 __________P___ -1 28.4905 133.991 4 18 81
1927266N21134 1927 52 WP MM NOT_NAMED 1927-09-26 18:00:00 NR 28.6363 135.028 main 466 466 __________P___ -1 28.6363 135.028 4 18 80
1927266N21134 1927 52 WP MM NOT_NAMED 1927-09-26 21:00:00 NR 28.8000 136.000 main 513 504 __________O___ -1 28.8000 136.000 4 15 78
1927266N21134 1927 52 WP MM NOT_NAMED 1927-09-27 00:00:00 NR 28.9351 136.693 main 509 495 __________P___ -1 28.9351 136.693 4 12 75
1927266N21134 1927 52 WP MM NOT_NAMED 1927-09-27 03:00:00 NR 29.1041 137.322 main 500 495 __________P___ -1 29.1041 137.322 4 12 70
1927266N21134 1927 52 WP MM NOT_NAMED 1927-09-27 06:00:00 NR 29.3466 137.989 main 502 492 __________P___ -1 29.3466 137.989 4 14 65
1927266N21134 1927 52 WP MM NOT_NAMED 1927-09-27 09:00:00 NR 29.7000 138.800 main 500 499 __________O___ -1 29.7000 138.800 4 19 63
1927266N21134 1927 52 WP MM NOT_NAMED 1927-09-27 12:00:00 NR 30.2163 139.915 main 501 468 __________P___ -1 30.2163 139.915 4 24 61
1927266N21134 1927 52 WP MM NOT_NAMED 1927-09-27 15:00:00 NR 30.8303 141.191 main 472 449 __________P___ -1 30.8303 141.191 4 26 61
1927266N21134 1927 52 WP MM NOT_NAMED 1927-09-27 18:00:00 NR 31.4783 142.548 main 449 449 __________P___ -1 31.4783 142.548 4 26 61
1927266N21134 1927 52 WP MM NOT_NAMED 1927-09-27 21:00:00 NR 32.1000 143.900 main 473 471 __________O___ -1 32.1000 143.900 4 25 62
1927266N21134 1927 52 WP MM NOT_NAMED 1927-09-28 00:00:00 NR 32.6523 145.147 main 510 510 __________P___ -1 32.6523 145.147 4 23 63
1927266N21134 1927 52 WP MM NOT_NAMED 1927-09-28 03:00:00 NR 33.1661 146.368 main 575 575 __________P___ -1 33.1661 146.368 4 22 64
1927266N21134 1927 52 WP MM NOT_NAMED 1927-09-28 06:00:00 NR 33.6218 147.555 main 654 654 __________P___ -1 33.6218 147.555 4 21 67
1927266N21134 1927 52 WP MM NOT_NAMED 1927-09-28 09:00:00 NR 34.0000 148.700 main 734 734 __________O___ -1 34.0000 148.700 4 20 70
1927266N21134 1927 52 WP MM NOT_NAMED 1927-09-28 12:00:00 NR 34.2886 149.796 main 823 823 __________P___ -1 34.2886 149.796 4 18 74
1927266N21134 1927 52 WP MM NOT_NAMED 1927-09-28 15:00:00 NR 34.5033 150.853 main 917 917 __________P___ -1 34.5033 150.853 4 18 78
1927266N21134 1927 52 WP MM NOT_NAMED 1927-09-28 18:00:00 NR 34.6665 151.883 main 1002 1002 __________P___ -1 34.6665 151.883 4 17 80
1927266N21134 1927 52 WP MM NOT_NAMED 1927-09-28 21:00:00 NR 34.8000 152.900 main 1087 __________O___ -1 34.8000 152.900 4 17 81

デジタル台風データ・検索

IBTrACS Databaseについて

本データベースは、米国NOAAが公開する1842年以降の世界の熱帯低気圧のベストトラックデータアーカイブInternational Best Track Archive for Climate Stewardship (IBTrACS)を、ウェブで閲覧しやすい形式に変換したものです。

最終更新日:2021-10-08